Time;durP1;ratioP1;P1;durP2;ratioP2;P2;SDS_P1;SDS_P2;PMS_P1;PMS_P2;Temp;Humidity;BMP_temperature;BMP_pressure;BME280_temperature;BME280_humidity;BME280_pressure;Samples;Min_cycle;Max_cycle;Signal;HPM_P1;HPM_P2
2024/03/13 00:01:54;;;;;;;21.93;19.77;;;9.10;1.00;;;;;;4800822;29;20256;-39
2024/03/13 00:04:20;;;;;;;21.20;19.03;;;9.10;1.00;;;;;;4800516;29;20244;-45
2024/03/13 00:06:50;;;;;;;21.40;19.47;;;9.10;1.00;;;;;;4803644;29;20431;-51
2024/03/13 00:09:17;;;;;;;21.20;19.30;;;9.10;1.00;;;;;;4798010;29;20451;-47
2024/03/13 00:11:43;;;;;;;22.17;19.83;;;9.10;34.00;;;;;;4800477;29;20439;-46
2024/03/13 00:14:09;;;;;;;22.10;20.10;;;9.10;99.90;;;;;;4800364;29;20838;-41
2024/03/13 00:16:35;;;;;;;20.77;18.90;;;9.10;99.90;;;;;;4805976;29;20218;-42
2024/03/13 00:19:00;;;;;;;22.07;20.07;;;9.10;99.90;;;;;;4801239;29;20274;-41
2024/03/13 00:21:28;;;;;;;20.70;18.77;;;9.00;99.90;;;;;;4807642;29;20430;-43
2024/03/13 00:23:54;;;;;;;22.30;20.30;;;9.00;99.90;;;;;;4805774;29;20245;-43
2024/03/13 00:26:23;;;;;;;22.03;20.03;;;9.00;99.90;;;;;;4809091;29;20530;-40
2024/03/13 00:28:49;;;;;;;21.33;19.33;;;9.10;99.90;;;;;;4800709;29;20194;-39
2024/03/13 00:31:14;;;;;;;21.57;19.73;;;9.00;99.90;;;;;;4800623;29;20435;-41
2024/03/13 00:33:40;;;;;;;21.10;19.10;;;9.00;99.90;;;;;;4804009;29;20739;-50
2024/03/13 00:36:08;;;;;;;21.90;19.87;;;9.00;99.90;;;;;;4810978;29;20254;-53
2024/03/13 00:38:34;;;;;;;21.90;19.70;;;9.00;99.90;;;;;;4784592;29;20190;-52
2024/03/13 00:41:00;;;;;;;21.83;19.50;;;9.00;99.90;;;;;;4799801;29;20591;-53
2024/03/13 00:43:26;;;;;;;22.13;19.83;;;9.00;99.90;;;;;;4806482;29;20472;-51
2024/03/13 00:45:52;;;;;;;21.40;19.40;;;8.90;99.90;;;;;;4802759;29;20811;-52
2024/03/13 00:48:20;;;;;;;22.57;20.17;;;8.90;99.90;;;;;;4801608;29;20638;-53
2024/03/13 00:50:48;;;;;;;20.57;18.83;;;8.80;99.90;;;;;;4795798;29;20191;-51
2024/03/13 00:53:17;;;;;;;21.13;19.23;;;8.80;99.90;;;;;;4800915;29;20467;-46
2024/03/13 00:55:42;;;;;;;22.50;20.50;;;8.80;1.00;;;;;;4799186;29;20955;-53
2024/03/13 00:58:08;;;;;;;21.53;19.43;;;8.70;1.00;;;;;;4803715;29;20431;-49
2024/03/13 01:00:38;;;;;;;21.40;19.40;;;8.70;1.00;;;;;;4800174;29;20201;-48
2024/03/13 01:03:04;;;;;;;22.13;20.03;;;8.60;1.00;;;;;;4795417;29;20207;-42
2024/03/13 01:05:33;;;;;;;21.97;20.07;;;8.60;1.00;;;;;;4799324;29;20744;-41
2024/03/13 01:07:58;;;;;;;20.80;18.80;;;8.60;1.00;;;;;;4801512;29;20423;-45
2024/03/13 01:10:26;;;;;;;22.10;20.03;;;8.60;99.90;;;;;;4796887;29;20448;-42
2024/03/13 01:12:53;;;;;;;22.57;20.57;;;8.50;99.90;;;;;;4785495;29;20270;-40
2024/03/13 01:15:20;;;;;;;22.20;19.97;;;8.50;1.00;;;;;;4804259;29;20482;-39
2024/03/13 01:17:46;;;;;;;21.97;20.03;;;8.50;1.00;;;;;;4810633;29;20435;-41
2024/03/13 01:20:16;;;;;;;22.30;20.37;;;8.50;1.00;;;;;;4804399;29;21306;-42
2024/03/13 01:22:43;;;;;;;21.67;19.73;;;8.50;99.90;;;;;;4799882;29;21040;-45
2024/03/13 01:25:10;;;;;;;22.13;20.20;;;8.60;1.00;;;;;;4798570;29;20440;-40
2024/03/13 01:27:37;;;;;;;21.97;19.87;;;8.60;1.00;;;;;;4808636;29;20443;-42
2024/03/13 01:30:03;;;;;;;22.97;20.90;;;8.60;1.00;;;;;;4808549;29;21294;-42
2024/03/13 01:32:29;;;;;;;21.97;20.13;;;8.60;99.90;;;;;;4795912;29;20447;-42
2024/03/13 01:34:55;;;;;;;22.50;20.57;;;8.60;99.90;;;;;;4795914;29;20491;-43
2024/03/13 01:40:09;;;;;;;20.83;18.93;;;8.60;99.90;;;;;;4800645;29;20277;-40
2024/03/13 01:56:38;;;;;;;21.77;19.60;;;8.70;99.90;;;;;;4803325;29;20417;-42
2024/03/13 01:59:20;;;;;;;21.23;19.33;;;8.70;99.90;;;;;;4802726;29;20444;-43
2024/03/13 02:04:30;;;;;;;20.53;18.73;;;8.70;99.90;;;;;;4797516;29;20524;-42
2024/03/13 02:06:56;;;;;;;21.73;19.50;;;8.70;99.90;;;;;;4807136;29;20455;-41
2024/03/13 02:09:23;;;;;;;21.97;19.87;;;8.70;99.90;;;;;;4799992;29;20447;-48
2024/03/13 02:11:49;;;;;;;22.67;20.37;;;8.70;99.90;;;;;;4806074;29;20435;-51
2024/03/13 02:14:16;;;;;;;22.40;20.30;;;8.80;1.00;;;;;;4799926;29;20864;-48
2024/03/13 02:16:42;;;;;;;22.43;20.40;;;8.80;1.00;;;;;;4802447;29;20431;-54
2024/03/13 02:19:07;;;;;;;21.50;19.70;;;8.80;1.00;;;;;;4804549;29;20447;-50
2024/03/13 02:21:34;;;;;;;21.60;19.60;;;8.80;1.00;;;;;;4806791;29;20190;-45
2024/03/13 02:24:00;;;;;;;21.33;19.43;;;8.80;1.00;;;;;;4802269;29;20588;-51
2024/03/13 02:26:26;;;;;;;22.37;20.20;;;8.80;1.00;;;;;;4779075;29;20440;-55
2024/03/13 02:28:52;;;;;;;21.30;19.27;;;8.80;1.00;;;;;;4794389;29;20225;-54
2024/03/13 02:31:17;;;;;;;20.90;19.07;;;8.80;93.90;;;;;;4805097;29;20723;-54
2024/03/13 02:33:43;;;;;;;22.17;20.10;;;8.70;1.00;;;;;;4799504;29;20523;-53
2024/03/13 02:36:09;;;;;;;21.77;19.83;;;8.70;19.50;;;;;;4796295;29;20198;-47
2024/03/13 02:38:35;;;;;;;21.33;19.23;;;8.70;99.90;;;;;;4794205;29;20512;-51
2024/03/13 02:41:00;;;;;;;22.83;20.63;;;8.70;99.90;;;;;;4795404;29;20988;-49
2024/03/13 02:43:26;;;;;;;23.00;20.80;;;8.70;1.00;;;;;;4802067;29;20214;-53
2024/03/13 02:45:52;;;;;;;22.27;20.17;;;8.70;1.00;;;;;;4794342;29;20305;-53
2024/03/13 02:48:17;;;;;;;22.37;20.30;;;8.70;1.00;;;;;;4796675;29;20193;-49
2024/03/13 02:50:46;;;;;;;23.33;21.13;;;8.60;1.00;;;;;;4797717;29;20658;-52
2024/03/13 02:53:12;;;;;;;21.23;18.93;;;8.60;1.00;;;;;;4794467;29;20194;-52
2024/03/13 02:55:38;;;;;;;21.13;19.13;;;8.60;1.00;;;;;;4802777;29;20904;-53
2024/03/13 02:58:04;;;;;;;22.30;20.20;;;8.50;99.90;;;;;;4794051;29;20202;-49
2024/03/13 03:00:30;;;;;;;22.30;20.20;;;8.40;99.90;;;;;;4793696;29;20433;-54
2024/03/13 03:02:57;;;;;;;23.20;20.80;;;8.40;1.00;;;;;;4793018;29;20258;-55
2024/03/13 03:05:24;;;;;;;23.07;20.33;;;8.40;99.90;;;;;;4795477;29;20428;-50
2024/03/13 03:07:51;;;;;;;21.93;19.50;;;8.30;1.00;;;;;;4807315;29;20428;-54
2024/03/13 03:10:16;;;;;;;22.03;19.83;;;8.30;1.00;;;;;;4809760;29;20435;-44
2024/03/13 03:12:43;;;;;;;22.90;20.70;;;8.30;90.60;;;;;;4810011;29;21562;-44
2024/03/13 03:15:09;;;;;;;22.00;19.83;;;8.30;1.00;;;;;;4797738;29;21368;-40
2024/03/13 03:17:35;;;;;;;22.20;20.20;;;8.40;99.90;;;;;;4795977;29;20439;-40
2024/03/13 03:20:01;;;;;;;22.93;20.67;;;8.40;99.90;;;;;;4796561;29;20461;-42
2024/03/13 03:22:27;;;;;;;23.40;21.10;;;8.40;1.00;;;;;;4806335;29;20190;-43
2024/03/13 03:24:52;;;;;;;21.97;19.87;;;8.30;1.00;;;;;;4803482;29;20971;-40
2024/03/13 03:27:18;;;;;;;22.20;19.90;;;8.40;1.00;;;;;;4802096;29;20197;-44
2024/03/13 03:29:44;;;;;;;22.97;20.73;;;8.30;1.00;;;;;;4784190;29;20281;-46
2024/03/13 03:32:09;;;;;;;19.30;17.40;;;8.40;1.00;;;;;;4799861;29;20945;-52
2024/03/13 03:34:35;;;;;;;21.57;19.57;;;8.30;36.00;;;;;;4802201;29;20195;-48
2024/03/13 03:37:01;;;;;;;21.47;19.57;;;8.30;14.60;;;;;;4791785;29;20557;-55
2024/03/13 03:39:29;;;;;;;22.53;20.33;;;8.30;1.00;;;;;;4800871;29;20201;-50
2024/03/13 03:41:56;;;;;;;21.37;19.37;;;8.30;1.00;;;;;;4803076;29;20209;-46
2024/03/13 03:44:21;;;;;;;21.13;19.23;;;8.30;1.00;;;;;;4785978;29;21451;-51
2024/03/13 03:46:48;;;;;;;22.90;19.70;;;8.30;1.00;;;;;;4805808;29;20436;-51
2024/03/13 03:49:13;;;;;;;21.27;19.27;;;8.30;99.90;;;;;;4806026;29;20182;-53
2024/03/13 03:51:39;;;;;;;22.30;20.00;;;8.30;99.90;;;;;;4804910;29;20434;-49
2024/03/13 03:54:05;;;;;;;22.47;20.23;;;8.30;99.90;;;;;;4806954;29;20190;-51
2024/03/13 03:56:38;;;;;;;22.00;19.90;;;8.30;1.00;;;;;;4806003;29;20303;-54
2024/03/13 03:59:05;;;;;;;22.27;19.50;;;8.20;1.00;;;;;;4802253;29;20186;-48
2024/03/13 04:01:31;;;;;;;22.00;19.80;;;8.30;1.00;;;;;;4808606;29;20443;-54
2024/03/13 04:03:58;;;;;;;23.30;21.17;;;8.20;1.00;;;;;;4806879;29;20467;-54
2024/03/13 04:06:23;;;;;;;21.63;19.53;;;8.30;1.00;;;;;;4805886;29;20194;-51
2024/03/13 04:08:50;;;;;;;21.40;19.40;;;8.20;1.00;;;;;;4810216;29;20430;-49
2024/03/13 04:11:16;;;;;;;22.70;20.40;;;8.10;1.00;;;;;;4809167;29;20182;-50
2024/03/13 04:13:42;;;;;;;22.00;19.77;;;8.10;1.00;;;;;;4804046;29;20471;-53
2024/03/13 04:16:10;;;;;;;22.43;20.33;;;8.00;1.00;;;;;;4799637;29;20467;-51
2024/03/13 04:18:36;;;;;;;22.73;20.43;;;7.90;51.70;;;;;;4793748;29;20236;-43
2024/03/13 04:21:03;;;;;;;22.83;20.53;;;7.80;99.90;;;;;;4802748;29;20975;-53
2024/03/13 04:23:32;;;;;;;21.87;19.67;;;7.70;99.90;;;;;;4803423;29;20491;-51
2024/03/13 04:26:02;;;;;;;23.00;20.73;;;7.60;1.00;;;;;;4810098;29;20439;-47
2024/03/13 04:28:28;;;;;;;22.13;20.03;;;7.50;1.00;;;;;;4806953;29;20471;-49
2024/03/13 04:30:54;;;;;;;21.60;19.60;;;7.40;33.60;;;;;;4808630;29;21400;-49
2024/03/13 04:33:19;;;;;;;21.23;19.10;;;7.30;99.90;;;;;;4807605;29;20202;-49
2024/03/13 04:35:45;;;;;;;22.10;20.00;;;7.20;1.00;;;;;;4806690;29;20197;-51
2024/03/13 04:38:13;;;;;;;22.50;20.20;;;7.10;1.00;;;;;;4805469;29;20202;-53
2024/03/13 04:40:39;;;;;;;23.13;20.70;;;7.00;1.00;;;;;;4806356;29;20258;-51
2024/03/13 04:43:08;;;;;;;21.00;18.80;;;7.00;1.00;;;;;;4806057;29;20478;-52
2024/03/13 04:45:37;;;;;;;22.97;20.57;;;6.90;1.00;;;;;;4803073;29;20465;-52
2024/03/13 04:48:05;;;;;;;22.73;20.43;;;6.90;1.00;;;;;;4798952;29;20444;-53
2024/03/13 04:50:32;;;;;;;23.10;20.73;;;6.90;1.00;;;;;;4803206;29;20483;-54
2024/03/13 04:52:58;;;;;;;25.00;20.60;;;6.90;1.00;;;;;;4800736;29;20443;-50
2024/03/13 04:55:25;;;;;;;23.97;21.37;;;6.90;1.00;;;;;;4807400;29;20555;-51
2024/03/13 04:57:51;;;;;;;25.67;21.13;;;6.90;1.00;;;;;;4804966;29;21112;-51
2024/03/13 05:00:17;;;;;;;22.27;20.00;;;6.90;1.00;;;;;;4799019;29;20449;-52
2024/03/13 05:02:43;;;;;;;28.17;22.47;;;6.90;1.00;;;;;;4799167;29;20420;-51
2024/03/13 05:05:14;;;;;;;26.90;22.70;;;6.90;1.00;;;;;;4795675;29;21365;-50
2024/03/13 05:07:43;;;;;;;25.17;21.70;;;6.90;1.00;;;;;;4795875;29;20194;-51
2024/03/13 05:10:10;;;;;;;24.07;21.57;;;6.90;1.00;;;;;;4807482;29;20434;-54
2024/03/13 05:12:37;;;;;;;26.30;22.30;;;6.90;1.00;;;;;;4798788;29;20426;-54
2024/03/13 05:15:06;;;;;;;22.57;20.30;;;6.80;1.00;;;;;;4802810;29;21499;-49
2024/03/13 05:17:39;;;;;;;24.73;21.27;;;6.80;1.00;;;;;;4800132;29;20435;-42
2024/03/13 05:20:07;;;;;;;22.80;20.40;;;6.80;1.00;;;;;;4805069;29;20773;-43
2024/03/13 05:22:33;;;;;;;21.83;19.47;;;6.70;1.00;;;;;;4799373;29;20442;-43
2024/03/13 05:24:59;;;;;;;23.77;21.23;;;6.70;1.00;;;;;;4795436;29;21460;-41
2024/03/13 05:27:25;;;;;;;22.43;20.20;;;6.70;1.00;;;;;;4800214;29;20423;-47
2024/03/13 05:29:52;;;;;;;24.70;20.93;;;6.70;1.00;;;;;;4794972;29;20197;-40
2024/03/13 05:32:17;;;;;;;23.37;20.13;;;6.60;1.00;;;;;;4800594;29;20223;-44
2024/03/13 05:34:43;;;;;;;24.97;22.10;;;6.50;1.00;;;;;;4801404;29;20424;-39
2024/03/13 05:37:09;;;;;;;23.60;20.87;;;6.50;1.00;;;;;;4800406;29;20190;-44
2024/03/13 05:39:34;;;;;;;23.70;20.27;;;6.40;1.00;;;;;;4809058;29;20212;-39
2024/03/13 05:42:00;;;;;;;22.20;19.87;;;6.40;3.80;;;;;;4811484;29;20194;-41
2024/03/13 05:44:27;;;;;;;23.33;20.40;;;6.30;14.00;;;;;;4809930;29;20225;-41
2024/03/13 05:46:54;;;;;;;24.30;20.47;;;6.30;24.30;;;;;;4811046;29;20198;-43
2024/03/13 05:49:19;;;;;;;23.37;19.90;;;6.20;28.20;;;;;;4800133;29;20436;-39
2024/03/13 05:51:45;;;;;;;22.67;20.37;;;6.20;38.50;;;;;;4810998;29;21077;-43
2024/03/13 05:54:11;;;;;;;22.17;19.83;;;6.10;50.80;;;;;;4801260;29;20632;-44
2024/03/13 05:56:37;;;;;;;21.10;19.00;;;6.10;64.00;;;;;;4810903;29;20521;-42
2024/03/13 05:59:03;;;;;;;22.05;19.75;;;6.10;72.70;;;;;;4804465;29;20593;-51
2024/03/13 06:01:29;;;;;;;22.77;19.77;;;6.10;80.80;;;;;;4805049;29;20623;-50
2024/03/13 06:03:56;;;;;;;23.50;20.40;;;6.00;89.10;;;;;;4802594;29;20202;-45
2024/03/13 06:06:22;;;;;;;25.05;19.50;;;6.00;95.60;;;;;;4804805;29;20190;-48
2024/03/13 06:08:49;;;;;;;23.40;20.47;;;6.00;99.90;;;;;;4806188;29;20190;-50
2024/03/13 06:11:17;;;;;;;26.52;21.05;;;6.00;99.90;;;;;;4810789;29;20514;-49
2024/03/13 06:13:42;;;;;;;25.77;20.73;;;5.90;99.90;;;;;;4807643;29;20673;-47
2024/03/13 06:16:09;;;;;;;25.40;21.90;;;6.00;99.90;;;;;;4804141;29;20206;-47
2024/03/13 06:18:35;;;;;;;23.85;21.30;;;5.90;99.90;;;;;;4800525;29;20183;-40
2024/03/13 06:21:03;;;;;;;27.30;20.47;;;5.90;99.90;;;;;;4811081;29;20700;-41
2024/03/13 06:23:28;;;;;;;24.67;21.40;;;5.90;99.90;;;;;;4805503;29;20493;-39
2024/03/13 06:25:57;;;;;;;24.67;21.23;;;5.90;99.90;;;;;;4792888;29;20195;-41
2024/03/13 06:31:07;;;;;;;23.65;19.05;;;5.90;99.90;;;;;;4803056;29;20185;-51
2024/03/13 06:33:32;;;;;;;25.53;19.70;;;5.90;99.90;;;;;;4810573;29;20399;-45
2024/03/13 06:35:58;;;;;;;24.00;19.87;;;6.00;99.90;;;;;;4802988;29;20926;-52
2024/03/13 06:38:24;;;;;;;23.30;20.10;;;6.00;99.90;;;;;;4810223;29;20222;-48
2024/03/13 06:40:50;;;;;;;24.17;21.20;;;6.00;99.90;;;;;;4805386;29;20201;-49
2024/03/13 06:43:16;;;;;;;22.30;19.60;;;6.10;99.90;;;;;;4813594;29;20217;-49
2024/03/13 06:45:45;;;;;;;27.83;22.13;;;6.20;99.90;;;;;;4809208;29;20646;-44
2024/03/13 06:48:12;;;;;;;22.23;19.93;;;6.20;94.50;;;;;;4813814;29;20488;-49
2024/03/13 06:50:38;;;;;;;26.80;20.60;;;6.30;81.30;;;;;;4810899;29;20431;-47
2024/03/13 06:53:04;;;;;;;22.30;20.00;;;6.30;68.90;;;;;;4811301;29;20434;-50
2024/03/13 06:55:30;;;;;;;29.47;22.07;;;6.40;53.50;;;;;;4790775;29;20451;-50
2024/03/13 06:57:56;;;;;;;25.53;20.23;;;6.40;36.10;;;;;;4799233;29;20236;-46
2024/03/13 07:00:21;;;;;;;26.60;20.00;;;6.50;28.30;;;;;;4796021;29;20522;-46
2024/03/13 07:02:48;;;;;;;22.20;19.80;;;6.50;20.80;;;;;;4804499;29;20662;-49
2024/03/13 07:05:15;;;;;;;21.70;19.33;;;6.60;7.20;;;;;;4798306;29;20705;-52
2024/03/13 07:07:42;;;;;;;24.00;20.60;;;6.70;1.00;;;;;;4810884;29;20446;-49
2024/03/13 07:10:10;;;;;;;24.13;21.40;;;6.70;1.00;;;;;;4790352;29;20427;-52
2024/03/13 07:12:37;;;;;;;25.17;21.87;;;6.80;1.00;;;;;;4813211;29;20459;-48
2024/03/13 07:15:04;;;;;;;21.03;18.60;;;6.90;1.00;;;;;;4807228;29;21142;-49
2024/03/13 07:17:30;;;;;;;23.63;21.10;;;7.00;1.00;;;;;;4809536;29;20432;-46
2024/03/13 07:19:56;;;;;;;21.50;18.30;;;7.00;1.00;;;;;;4809364;29;20428;-47
2024/03/13 07:22:21;;;;;;;25.33;19.90;;;7.10;1.00;;;;;;4801994;29;20202;-47
2024/03/13 07:24:47;;;;;;;26.17;20.07;;;7.10;1.00;;;;;;4810734;29;20218;-48
2024/03/13 07:27:12;;;;;;;23.33;20.87;;;7.30;1.00;;;;;;4811086;29;20562;-48
2024/03/13 07:29:38;;;;;;;25.00;19.93;;;7.40;1.00;;;;;;4812286;29;20272;-53
2024/03/13 07:32:03;;;;;;;25.63;20.93;;;7.50;1.00;;;;;;4800596;29;20680;-46
2024/03/13 07:34:29;;;;;;;23.40;19.93;;;7.50;1.00;;;;;;4812748;29;20223;-49
2024/03/13 07:36:55;;;;;;;22.47;19.53;;;7.70;99.90;;;;;;4812450;29;20200;-52
2024/03/13 07:39:21;;;;;;;23.90;21.33;;;7.80;99.90;;;;;;4810132;29;20246;-49
2024/03/13 07:41:46;;;;;;;23.33;20.93;;;7.90;99.90;;;;;;4786487;29;20198;-48
2024/03/13 07:44:12;;;;;;;22.43;20.00;;;8.00;1.00;;;;;;4796423;29;20558;-47
2024/03/13 07:46:37;;;;;;;21.17;19.03;;;8.00;99.90;;;;;;4804196;29;20731;-51
2024/03/13 07:49:03;;;;;;;24.20;19.40;;;8.00;99.90;;;;;;4808953;29;20187;-51
2024/03/13 07:51:29;;;;;;;21.63;19.43;;;8.10;99.90;;;;;;4804007;29;20194;-48
2024/03/13 07:53:54;;;;;;;21.37;19.03;;;8.30;99.90;;;;;;4794522;29;20190;-50
2024/03/13 07:56:20;;;;;;;19.83;17.77;;;8.40;99.90;;;;;;4806747;29;20198;-46
2024/03/13 07:58:45;;;;;;;24.23;20.37;;;8.50;99.90;;;;;;4813041;29;20190;-53
2024/03/13 08:01:11;;;;;;;22.60;20.30;;;8.70;99.90;;;;;;4808588;29;20876;-49
2024/03/13 08:03:37;;;;;;;19.53;17.70;;;8.80;99.90;;;;;;4803228;29;20225;-47
2024/03/13 08:06:03;;;;;;;19.83;17.83;;;9.00;99.90;;;;;;4807929;29;20808;-46
2024/03/13 08:08:28;;;;;;;22.30;20.10;;;9.10;99.90;;;;;;4812212;29;20294;-49
2024/03/13 08:10:54;;;;;;;21.67;19.57;;;9.30;99.90;;;;;;4803468;29;20438;-47
2024/03/13 08:13:19;;;;;;;22.50;20.33;;;9.50;99.90;;;;;;4811101;29;20218;-48
2024/03/13 08:15:45;;;;;;;22.00;19.83;;;9.70;99.90;;;;;;4806961;29;20206;-47
2024/03/13 08:18:14;;;;;;;22.13;19.93;;;9.90;99.90;;;;;;4805401;29;20560;-50
2024/03/13 08:20:46;;;;;;;20.33;18.40;;;10.20;99.90;;;;;;4809870;29;20189;-48
2024/03/13 08:23:11;;;;;;;21.70;19.57;;;10.50;99.90;;;;;;4806296;29;20506;-50
2024/03/13 08:25:37;;;;;;;22.30;20.10;;;10.70;99.90;;;;;;4810998;29;20531;-53
2024/03/13 08:28:03;;;;;;;21.97;19.87;;;10.90;99.90;;;;;;4812687;29;20197;-50
2024/03/13 08:30:29;;;;;;;21.70;19.50;;;11.30;99.90;;;;;;4807595;29;20432;-46
2024/03/13 08:32:55;;;;;;;20.20;18.10;;;11.60;99.90;;;;;;4805473;29;20770;-49
2024/03/13 08:35:24;;;;;;;21.50;17.93;;;12.20;99.90;;;;;;4805795;29;20201;-51
2024/03/13 08:37:50;;;;;;;21.10;19.00;;;12.70;99.30;;;;;;4797308;29;21338;-50
2024/03/13 08:40:16;;;;;;;20.47;18.57;;;13.30;96.50;;;;;;4811788;29;20431;-46
2024/03/13 08:42:45;;;;;;;19.33;17.40;;;13.90;94.30;;;;;;4807628;29;20276;-48
2024/03/13 08:45:11;;;;;;;21.53;19.40;;;14.40;92.60;;;;;;4795193;29;20454;-48
2024/03/13 08:47:38;;;;;;;20.10;18.27;;;14.90;90.40;;;;;;4809209;29;20499;-48
2024/03/13 08:50:04;;;;;;;19.70;17.80;;;15.20;87.10;;;;;;4795145;29;20435;-50
2024/03/13 08:52:30;;;;;;;21.40;19.50;;;15.30;83.70;;;;;;4809066;29;20526;-52
2024/03/13 08:54:56;;;;;;;21.63;19.60;;;15.70;81.20;;;;;;4811293;29;20430;-49
2024/03/13 08:57:24;;;;;;;21.67;19.67;;;16.10;79.00;;;;;;4801637;29;21260;-48
2024/03/13 08:59:50;;;;;;;20.40;18.50;;;16.40;75.80;;;;;;4811107;29;20546;-49
2024/03/13 09:02:16;;;;;;;20.90;18.87;;;16.60;74.40;;;;;;4802943;29;21055;-49
2024/03/13 09:04:42;;;;;;;21.33;19.33;;;17.20;70.90;;;;;;4792130;29;20501;-50
2024/03/13 09:07:10;;;;;;;22.20;20.10;;;17.60;68.40;;;;;;4803975;29;20427;-51
2024/03/13 09:09:38;;;;;;;21.70;19.60;;;17.80;65.70;;;;;;4811384;29;20194;-51
2024/03/13 09:12:08;;;;;;;20.80;18.90;;;17.90;63.80;;;;;;4789173;29;20556;-45
2024/03/13 09:14:36;;;;;;;20.50;18.60;;;18.10;62.20;;;;;;4794739;29;20496;-49
2024/03/13 09:17:09;;;;;;;21.00;19.10;;;18.20;61.50;;;;;;4799753;29;20454;-44
2024/03/13 09:19:37;;;;;;;19.70;18.10;;;18.40;60.90;;;;;;4811479;29;20708;-50
2024/03/13 09:22:08;;;;;;;19.40;17.70;;;18.50;59.60;;;;;;4807739;29;20922;-46
2024/03/13 09:24:35;;;;;;;20.67;18.90;;;19.00;57.70;;;;;;4811505;29;20478;-50
2024/03/13 09:27:01;;;;;;;21.27;19.10;;;19.30;56.40;;;;;;4808574;29;20466;-46
2024/03/13 09:29:27;;;;;;;19.40;17.70;;;19.40;55.50;;;;;;4811316;29;20439;-49
2024/03/13 09:31:52;;;;;;;19.37;17.67;;;19.60;54.20;;;;;;4797213;29;20763;-45
2024/03/13 09:34:18;;;;;;;19.83;18.03;;;19.70;53.80;;;;;;4802390;29;20284;-50
2024/03/13 09:36:44;;;;;;;20.83;19.03;;;19.60;52.10;;;;;;4810101;29;20197;-51
2024/03/13 09:39:11;;;;;;;19.70;17.80;;;19.50;53.20;;;;;;4802351;29;20567;-51
2024/03/13 09:41:37;;;;;;;20.67;18.77;;;19.00;52.80;;;;;;4811288;29;20646;-46
2024/03/13 09:44:02;;;;;;;19.97;18.13;;;18.50;54.10;;;;;;4802819;29;20491;-50
2024/03/13 09:46:30;;;;;;;18.07;16.37;;;18.20;55.60;;;;;;4810783;29;20272;-50
2024/03/13 09:48:57;;;;;;;19.60;17.80;;;18.50;56.30;;;;;;4804574;29;20468;-49
2024/03/13 09:51:23;;;;;;;19.10;17.30;;;18.90;54.80;;;;;;4811232;29;20431;-46
2024/03/13 09:53:50;;;;;;;20.00;18.07;;;19.40;53.80;;;;;;4806825;29;20768;-54
2024/03/13 09:56:19;;;;;;;19.90;18.20;;;20.30;51.30;;;;;;4810599;29;20201;-45
2024/03/13 09:58:46;;;;;;;18.00;16.40;;;20.90;49.20;;;;;;4808578;29;20546;-54
2024/03/13 10:01:25;;;;;;;19.20;17.57;;;21.20;47.50;;;;;;4794564;29;20441;-53
2024/03/13 10:03:59;;;;;;;18.77;17.13;;;21.50;47.90;;;;;;4805271;29;20470;-52
2024/03/13 10:06:25;;;;;;;19.83;18.27;;;21.90;44.20;;;;;;4799887;29;20435;-48
2024/03/13 10:08:53;;;;;;;20.20;18.50;;;22.10;44.00;;;;;;4808727;29;20469;-47
2024/03/13 10:11:20;;;;;;;17.53;16.07;;;22.50;42.70;;;;;;4808423;29;20423;-46
2024/03/13 10:13:46;;;;;;;20.00;18.40;;;22.40;40.80;;;;;;4801063;29;20479;-49
2024/03/13 10:16:13;;;;;;;19.37;17.77;;;21.80;41.50;;;;;;4812391;29;20482;-51
2024/03/13 10:18:48;;;;;;;18.70;17.20;;;21.20;42.60;;;;;;4806183;29;20923;-54
2024/03/13 10:21:27;;;;;;;18.50;17.00;;;20.80;41.10;;;;;;4805149;29;20993;-51
2024/03/13 10:23:55;;;;;;;19.80;18.20;;;20.80;43.10;;;;;;4807332;29;20470;-49
2024/03/13 10:26:21;;;;;;;18.20;16.67;;;20.70;42.00;;;;;;4813743;29;20446;-47
2024/03/13 10:28:50;;;;;;;18.90;17.40;;;20.50;42.80;;;;;;4809614;29;20435;-48
2024/03/13 10:31:20;;;;;;;19.37;17.70;;;20.40;40.50;;;;;;4804134;29;20432;-49
2024/03/13 10:33:46;;;;;;;17.90;16.30;;;20.10;41.00;;;;;;4809147;29;20446;-47
2024/03/13 10:36:13;;;;;;;19.00;17.50;;;20.20;40.60;;;;;;4813705;29;21018;-48
2024/03/13 10:38:41;;;;;;;17.80;16.27;;;20.60;39.80;;;;;;4811717;29;20202;-46
2024/03/13 10:41:08;;;;;;;16.03;14.73;;;21.10;39.60;;;;;;4813812;29;20438;-42
2024/03/13 10:43:33;;;;;;;17.27;15.80;;;21.40;39.80;;;;;;4812089;29;20479;-43
2024/03/13 10:45:59;;;;;;;17.03;15.63;;;21.70;39.30;;;;;;4813846;29;20439;-45
2024/03/13 10:48:25;;;;;;;18.20;16.80;;;22.50;37.50;;;;;;4813971;29;20194;-42
2024/03/13 10:50:52;;;;;;;18.20;16.40;;;22.10;35.20;;;;;;4813422;29;20522;-41
2024/03/13 10:53:21;;;;;;;18.20;16.57;;;22.30;36.30;;;;;;4807767;29;20195;-46
2024/03/13 10:55:47;;;;;;;18.70;17.20;;;22.30;36.10;;;;;;4807056;29;20473;-44
2024/03/13 10:58:22;;;;;;;17.83;16.40;;;22.20;36.40;;;;;;4811667;29;20583;-43
2024/03/13 11:00:50;;;;;;;15.83;14.53;;;22.10;34.20;;;;;;4806732;29;20574;-42
2024/03/13 11:03:17;;;;;;;18.37;16.97;;;23.00;35.40;;;;;;4801535;29;20470;-41
2024/03/13 11:05:44;;;;;;;18.40;16.90;;;23.70;34.60;;;;;;4813334;29;20435;-45
2024/03/13 11:08:10;;;;;;;17.93;16.53;;;24.30;34.10;;;;;;4812598;29;20500;-41
2024/03/13 11:10:36;;;;;;;18.40;17.00;;;24.50;33.20;;;;;;4807909;29;20576;-40
2024/03/13 11:13:06;;;;;;;19.93;18.40;;;24.90;32.60;;;;;;4812936;29;20253;-38
2024/03/13 11:15:37;;;;;;;16.60;15.30;;;25.50;31.70;;;;;;4808372;29;20479;-43
2024/03/13 11:18:04;;;;;;;18.40;17.00;;;25.80;29.80;;;;;;4806005;29;20431;-41
2024/03/13 11:20:32;;;;;;;18.33;16.87;;;25.40;29.10;;;;;;4810289;29;20870;-41
2024/03/13 11:23:23;;;;;;;16.80;15.60;;;25.00;29.10;;;;;;4804093;29;20523;-45
2024/03/13 11:25:50;;;;;;;18.93;17.50;;;24.70;30.50;;;;;;4799754;29;20492;-41
2024/03/13 11:28:21;;;;;;;18.93;17.37;;;24.10;30.10;;;;;;4805375;29;20424;-42
2024/03/13 11:30:48;;;;;;;17.23;15.90;;;23.50;30.60;;;;;;4789413;29;20436;-44
2024/03/13 11:33:14;;;;;;;19.60;18.20;;;23.00;32.60;;;;;;4810031;29;20435;-44
2024/03/13 11:35:42;;;;;;;17.27;15.87;;;23.00;31.40;;;;;;4804933;29;20495;-39
2024/03/13 11:38:10;;;;;;;17.77;16.53;;;23.00;30.70;;;;;;4813157;29;20447;-46
2024/03/13 11:40:36;;;;;;;18.50;17.00;;;22.10;31.50;;;;;;4806415;29;20462;-43
2024/03/13 11:43:05;;;;;;;18.00;16.50;;;22.10;32.40;;;;;;4812850;29;21187;-43
2024/03/13 11:45:42;;;;;;;16.13;14.83;;;22.50;31.70;;;;;;4807610;29;20766;-44
2024/03/13 11:48:34;;;;;;;18.00;16.23;;;23.20;32.30;;;;;;4812892;29;20860;-43
2024/03/13 11:51:00;;;;;;;18.50;17.00;;;23.70;30.30;;;;;;4804783;29;21278;-46
2024/03/13 11:53:26;;;;;;;18.57;17.07;;;23.80;29.80;;;;;;4802235;29;20459;-45
2024/03/13 11:55:53;;;;;;;18.00;16.53;;;23.80;30.20;;;;;;4810156;29;20201;-42
2024/03/13 11:58:21;;;;;;;18.60;17.10;;;23.90;29.00;;;;;;4806439;29;20432;-45
2024/03/13 12:00:47;;;;;;;16.83;15.60;;;23.50;29.00;;;;;;4811476;29;20431;-43
2024/03/13 12:03:19;;;;;;;16.93;15.73;;;24.20;30.30;;;;;;4806094;29;20478;-44
2024/03/13 12:05:45;;;;;;;17.77;16.47;;;24.50;29.50;;;;;;4797091;29;20540;-42
2024/03/13 12:08:15;;;;;;;17.07;15.77;;;24.60;28.50;;;;;;4812656;29;20418;-48
2024/03/13 12:10:41;;;;;;;17.20;15.90;;;24.10;28.50;;;;;;4797793;29;20436;-45
2024/03/13 12:13:14;;;;;;;19.57;17.97;;;23.60;28.60;;;;;;4812448;29;21149;-51
2024/03/13 12:15:44;;;;;;;17.97;16.60;;;22.40;28.60;;;;;;4798373;29;20237;-49
2024/03/13 12:18:13;;;;;;;16.87;15.47;;;21.90;29.90;;;;;;4803864;29;20439;-44
2024/03/13 12:20:43;;;;;;;17.47;16.10;;;21.30;30.70;;;;;;4803532;29;20434;-49
2024/03/13 12:23:12;;;;;;;17.60;16.30;;;20.60;31.80;;;;;;4812153;29;20487;-51
2024/03/13 12:25:39;;;;;;;17.77;16.47;;;20.00;32.70;;;;;;4807807;29;20427;-49
2024/03/13 12:28:20;;;;;;;19.87;18.30;;;19.40;34.00;;;;;;4812107;29;20430;-46
2024/03/13 12:30:49;;;;;;;17.07;15.73;;;19.10;36.10;;;;;;4808906;29;20422;-48
2024/03/13 12:33:15;;;;;;;17.83;16.23;;;18.90;37.60;;;;;;4811969;29;20427;-47
2024/03/13 12:35:43;;;;;;;17.50;16.10;;;18.70;36.80;;;;;;4804356;29;20439;-47
2024/03/13 12:38:09;;;;;;;17.30;15.90;;;18.50;37.40;;;;;;4798982;29;20187;-50
2024/03/13 12:40:34;;;;;;;17.67;16.37;;;18.30;37.90;;;;;;4789138;29;20444;-45
2024/03/13 12:43:04;;;;;;;17.97;16.47;;;18.20;39.10;;;;;;4807481;29;20220;-47
2024/03/13 12:45:30;;;;;;;17.10;15.70;;;18.20;37.90;;;;;;4806329;29;20252;-44
2024/03/13 12:47:56;;;;;;;17.73;16.13;;;18.20;38.90;;;;;;4811679;29;21028;-50
2024/03/13 12:50:21;;;;;;;16.97;15.63;;;18.80;39.00;;;;;;4807216;29;20205;-46
2024/03/13 12:52:49;;;;;;;17.50;16.00;;;19.80;37.30;;;;;;4805450;29;20187;-47
2024/03/13 12:55:22;;;;;;;16.40;15.00;;;20.70;36.20;;;;;;4808842;29;20790;-47
2024/03/13 12:57:49;;;;;;;16.90;15.60;;;21.40;33.90;;;;;;4809658;29;20834;-49